EFHK

Helsinki Vantaa Airport

Helsinki, Finland
METAR EFHK 151320Z 11004KT 4500 BR FEW003 BKN005 BKN019 01/00 Q0991 BECMG 5000
Observed Flight Rules
Dec-15 @ 13:20 UTC (26 minutes ago) Instrument Flight Rules
Wind Visibility Clouds Conditions
110° at 4 knots 4,506 meters
  • Few at 300' AGL
  • Broken at 500' AGL
  • Broken at 1,900' AGL
  • Mist
Temperatures Readings
Current 1°C / 34°F
Dewpoint 0°C / 32°F
Humidity 93%
Altimeter 29.26" Hg
Pressure 991 hPa
Elevation 56
METAR EFHK 151320Z 11004KT 4500 BR FEW003 BKN005 BKN019 01/00 Q0991 BECMG 5000
Observed Flight Rules
Dec-15 @ 13:20 UTC
(26 minutes ago)
IFR
Wind Visibility
110° at 4 knots 4,506 meters
Clouds
  • Few at 300' AGL
  • Broken at 500' AGL
  • Broken at 1,900' AGL
Conditions
  • Mist
Temperature Dewpoint
1°C / 34°F 0°C / 32°F
Humidity Altimeter Pressure
93% 29.26" Hg 991 hPa